sensor_id;sensor_type;location;lat;lon;timestamp;P1;durP1;ratioP1;P2;durP2;ratioP2
44272;SDS011;29964;17.182;-96.766;2023-03-17T00:00:47;2.97;;;1.58;;
44272;SDS011;29964;17.182;-96.766;2023-03-17T00:03:24;2.33;;;1.80;;
44272;SDS011;29964;17.182;-96.766;2023-03-17T00:05:53;2.13;;;1.60;;
44272;SDS011;29964;17.182;-96.766;2023-03-17T00:08:25;1.77;;;1.57;;
44272;SDS011;29964;17.182;-96.766;2023-03-17T00:10:52;3.80;;;2.30;;
44272;SDS011;29964;17.182;-96.766;2023-03-17T00:13:19;3.77;;;2.43;;
44272;SDS011;29964;17.182;-96.766;2023-03-17T00:15:47;7.17;;;3.03;;
44272;SDS011;29964;17.182;-96.766;2023-03-17T00:18:17;3.00;;;2.03;;
44272;SDS011;29964;17.182;-96.766;2023-03-17T00:20:44;2.63;;;1.83;;
44272;SDS011;29964;17.182;-96.766;2023-03-17T00:23:14;4.77;;;2.30;;
44272;SDS011;29964;17.182;-96.766;2023-03-17T00:25:41;2.30;;;1.73;;
44272;SDS011;29964;17.182;-96.766;2023-03-17T00:28:16;8.13;;;1.90;;
44272;SDS011;29964;17.182;-96.766;2023-03-17T00:30:43;6.22;;;1.88;;
44272;SDS011;29964;17.182;-96.766;2023-03-17T00:33:10;2.70;;;1.80;;
44272;SDS011;29964;17.182;-96.766;2023-03-17T00:35:37;2.60;;;1.77;;
44272;SDS011;29964;17.182;-96.766;2023-03-17T00:38:05;1.80;;;1.43;;
44272;SDS011;29964;17.182;-96.766;2023-03-17T00:40:32;5.93;;;2.33;;
44272;SDS011;29964;17.182;-96.766;2023-03-17T00:42:58;2.47;;;1.53;;
44272;SDS011;29964;17.182;-96.766;2023-03-17T00:45:27;3.80;;;2.73;;
44272;SDS011;29964;17.182;-96.766;2023-03-17T00:47:53;2.40;;;1.70;;
44272;SDS011;29964;17.182;-96.766;2023-03-17T00:50:22;3.17;;;1.97;;
44272;SDS011;29964;17.182;-96.766;2023-03-17T00:52:50;6.90;;;1.70;;
44272;SDS011;29964;17.182;-96.766;2023-03-17T00:55:20;1.93;;;1.40;;
44272;SDS011;29964;17.182;-96.766;2023-03-17T00:57:47;3.33;;;1.70;;
44272;SDS011;29964;17.182;-96.766;2023-03-17T01:02:47;4.77;;;2.53;;
44272;SDS011;29964;17.182;-96.766;2023-03-17T01:05:15;3.57;;;1.90;;
44272;SDS011;29964;17.182;-96.766;2023-03-17T01:07:43;1.90;;;1.47;;
44272;SDS011;29964;17.182;-96.766;2023-03-17T01:10:24;4.80;;;2.07;;
44272;SDS011;29964;17.182;-96.766;2023-03-17T01:12:52;2.42;;;1.98;;
44272;SDS011;29964;17.182;-96.766;2023-03-17T01:15:20;2.30;;;1.87;;
44272;SDS011;29964;17.182;-96.766;2023-03-17T01:17:47;2.47;;;1.50;;
44272;SDS011;29964;17.182;-96.766;2023-03-17T01:20:19;3.50;;;2.00;;
44272;SDS011;29964;17.182;-96.766;2023-03-17T01:22:47;3.80;;;2.20;;
44272;SDS011;29964;17.182;-96.766;2023-03-17T01:25:15;2.53;;;1.97;;
44272;SDS011;29964;17.182;-96.766;2023-03-17T01:27:42;2.40;;;1.83;;
44272;SDS011;29964;17.182;-96.766;2023-03-17T01:32:39;3.30;;;1.53;;
44272;SDS011;29964;17.182;-96.766;2023-03-17T01:35:05;3.20;;;2.07;;
44272;SDS011;29964;17.182;-96.766;2023-03-17T01:37:32;4.10;;;1.50;;
44272;SDS011;29964;17.182;-96.766;2023-03-17T01:39:59;4.60;;;1.83;;
44272;SDS011;29964;17.182;-96.766;2023-03-17T01:42:26;3.17;;;1.67;;
44272;SDS011;29964;17.182;-96.766;2023-03-17T01:45:04;3.00;;;1.47;;
44272;SDS011;29964;17.182;-96.766;2023-03-17T01:47:31;4.07;;;1.90;;
44272;SDS011;29964;17.182;-96.766;2023-03-17T01:49:58;2.60;;;1.77;;
44272;SDS011;29964;17.182;-96.766;2023-03-17T01:52:26;7.87;;;1.73;;
44272;SDS011;29964;17.182;-96.766;2023-03-17T01:55:11;2.43;;;1.27;;
44272;SDS011;29964;17.182;-96.766;2023-03-17T01:57:42;3.23;;;1.90;;
44272;SDS011;29964;17.182;-96.766;2023-03-17T02:00:14;2.17;;;1.63;;
44272;SDS011;29964;17.182;-96.766;2023-03-17T02:02:49;7.03;;;2.10;;
44272;SDS011;29964;17.182;-96.766;2023-03-17T02:05:17;1.77;;;1.23;;
44272;SDS011;29964;17.182;-96.766;2023-03-17T02:07:45;3.67;;;2.03;;
44272;SDS011;29964;17.182;-96.766;2023-03-17T02:10:13;4.63;;;2.20;;
44272;SDS011;29964;17.182;-96.766;2023-03-17T02:12:42;2.10;;;1.80;;
44272;SDS011;29964;17.182;-96.766;2023-03-17T02:15:10;8.53;;;2.60;;
44272;SDS011;29964;17.182;-96.766;2023-03-17T02:17:37;3.03;;;1.43;;
44272;SDS011;29964;17.182;-96.766;2023-03-17T02:22:46;2.73;;;1.93;;
44272;SDS011;29964;17.182;-96.766;2023-03-17T02:25:16;4.27;;;2.63;;
44272;SDS011;29964;17.182;-96.766;2023-03-17T02:27:45;8.90;;;3.27;;
44272;SDS011;29964;17.182;-96.766;2023-03-17T02:30:15;3.03;;;2.00;;
44272;SDS011;29964;17.182;-96.766;2023-03-17T02:32:43;3.63;;;2.00;;
44272;SDS011;29964;17.182;-96.766;2023-03-17T02:35:10;2.20;;;1.70;;
44272;SDS011;29964;17.182;-96.766;2023-03-17T02:37:37;8.87;;;2.40;;
44272;SDS011;29964;17.182;-96.766;2023-03-17T02:40:04;3.53;;;2.43;;
44272;SDS011;29964;17.182;-96.766;2023-03-17T02:42:32;5.20;;;2.07;;
44272;SDS011;29964;17.182;-96.766;2023-03-17T02:44:59;1.60;;;1.40;;
44272;SDS011;29964;17.182;-96.766;2023-03-17T02:47:26;2.03;;;1.33;;
44272;SDS011;29964;17.182;-96.766;2023-03-17T02:49:53;3.03;;;2.07;;
44272;SDS011;29964;17.182;-96.766;2023-03-17T02:52:20;3.17;;;2.37;;
44272;SDS011;29964;17.182;-96.766;2023-03-17T02:54:46;5.93;;;2.30;;
44272;SDS011;29964;17.182;-96.766;2023-03-17T02:57:13;3.03;;;1.70;;
44272;SDS011;29964;17.182;-96.766;2023-03-17T02:59:40;2.43;;;1.57;;
44272;SDS011;29964;17.182;-96.766;2023-03-17T03:02:07;2.03;;;1.67;;
44272;SDS011;29964;17.182;-96.766;2023-03-17T03:04:33;2.77;;;1.90;;
44272;SDS011;29964;17.182;-96.766;2023-03-17T03:07:00;2.77;;;1.77;;
44272;SDS011;29964;17.182;-96.766;2023-03-17T03:09:28;4.60;;;2.10;;
44272;SDS011;29964;17.182;-96.766;2023-03-17T03:11:55;3.63;;;2.17;;
44272;SDS011;29964;17.182;-96.766;2023-03-17T03:14:22;1.63;;;1.40;;
44272;SDS011;29964;17.182;-96.766;2023-03-17T03:16:48;3.07;;;1.57;;
44272;SDS011;29964;17.182;-96.766;2023-03-17T03:19:16;3.33;;;2.17;;
44272;SDS011;29964;17.182;-96.766;2023-03-17T03:21:43;1.93;;;1.40;;
44272;SDS011;29964;17.182;-96.766;2023-03-17T03:24:10;3.40;;;2.40;;
44272;SDS011;29964;17.182;-96.766;2023-03-17T03:26:37;5.93;;;1.73;;
44272;SDS011;29964;17.182;-96.766;2023-03-17T03:29:04;2.80;;;1.73;;
44272;SDS011;29964;17.182;-96.766;2023-03-17T03:31:31;3.20;;;2.10;;
44272;SDS011;29964;17.182;-96.766;2023-03-17T03:33:57;2.67;;;1.90;;
44272;SDS011;29964;17.182;-96.766;2023-03-17T03:36:24;3.63;;;2.17;;
44272;SDS011;29964;17.182;-96.766;2023-03-17T03:38:51;3.03;;;1.87;;
44272;SDS011;29964;17.182;-96.766;2023-03-17T03:41:18;2.20;;;1.77;;
44272;SDS011;29964;17.182;-96.766;2023-03-17T03:43:44;2.83;;;1.93;;
44272;SDS011;29964;17.182;-96.766;2023-03-17T03:46:11;1.77;;;1.17;;
44272;SDS011;29964;17.182;-96.766;2023-03-17T03:48:38;11.83;;;2.97;;
44272;SDS011;29964;17.182;-96.766;2023-03-17T03:51:05;1.80;;;1.30;;
44272;SDS011;29964;17.182;-96.766;2023-03-17T03:53:32;3.23;;;1.97;;
44272;SDS011;29964;17.182;-96.766;2023-03-17T03:55:59;2.90;;;1.97;;
44272;SDS011;29964;17.182;-96.766;2023-03-17T03:58:26;2.17;;;1.77;;
44272;SDS011;29964;17.182;-96.766;2023-03-17T04:00:52;2.63;;;1.73;;
44272;SDS011;29964;17.182;-96.766;2023-03-17T04:03:19;3.93;;;2.20;;
44272;SDS011;29964;17.182;-96.766;2023-03-17T04:05:46;2.03;;;1.60;;
44272;SDS011;29964;17.182;-96.766;2023-03-17T04:08:13;4.03;;;1.93;;
44272;SDS011;29964;17.182;-96.766;2023-03-17T04:10:39;0.93;;;0.80;;
44272;SDS011;29964;17.182;-96.766;2023-03-17T04:13:06;2.43;;;1.90;;
44272;SDS011;29964;17.182;-96.766;2023-03-17T04:15:33;2.33;;;1.67;;
44272;SDS011;29964;17.182;-96.766;2023-03-17T04:18:00;2.13;;;1.50;;
44272;SDS011;29964;17.182;-96.766;2023-03-17T04:20:29;7.47;;;1.87;;
44272;SDS011;29964;17.182;-96.766;2023-03-17T04:22:56;3.17;;;1.83;;
44272;SDS011;29964;17.182;-96.766;2023-03-17T04:25:22;2.63;;;1.57;;
44272;SDS011;29964;17.182;-96.766;2023-03-17T04:27:49;2.30;;;1.27;;
44272;SDS011;29964;17.182;-96.766;2023-03-17T04:30:16;3.57;;;2.30;;
44272;SDS011;29964;17.182;-96.766;2023-03-17T04:32:43;1.87;;;1.33;;
44272;SDS011;29964;17.182;-96.766;2023-03-17T04:35:14;1.50;;;1.10;;
44272;SDS011;29964;17.182;-96.766;2023-03-17T04:37:41;4.33;;;1.80;;
44272;SDS011;29964;17.182;-96.766;2023-03-17T04:40:08;2.73;;;1.70;;
44272;SDS011;29964;17.182;-96.766;2023-03-17T04:42:36;4.33;;;2.07;;
44272;SDS011;29964;17.182;-96.766;2023-03-17T04:45:03;3.07;;;1.80;;
44272;SDS011;29964;17.182;-96.766;2023-03-17T04:47:30;1.37;;;1.27;;
44272;SDS011;29964;17.182;-96.766;2023-03-17T04:49:57;3.63;;;1.57;;
44272;SDS011;29964;17.182;-96.766;2023-03-17T04:52:24;5.23;;;1.60;;
44272;SDS011;29964;17.182;-96.766;2023-03-17T04:54:50;1.77;;;1.33;;
44272;SDS011;29964;17.182;-96.766;2023-03-17T04:57:17;5.50;;;2.60;;
44272;SDS011;29964;17.182;-96.766;2023-03-17T04:59:44;3.07;;;1.80;;
44272;SDS011;29964;17.182;-96.766;2023-03-17T05:02:11;4.97;;;1.73;;
44272;SDS011;29964;17.182;-96.766;2023-03-17T05:04:38;2.50;;;1.63;;
44272;SDS011;29964;17.182;-96.766;2023-03-17T05:07:05;5.53;;;1.30;;
44272;SDS011;29964;17.182;-96.766;2023-03-17T05:09:31;2.00;;;1.33;;
44272;SDS011;29964;17.182;-96.766;2023-03-17T05:11:58;2.00;;;1.27;;
44272;SDS011;29964;17.182;-96.766;2023-03-17T05:14:25;2.37;;;1.70;;
44272;SDS011;29964;17.182;-96.766;2023-03-17T05:16:51;3.87;;;1.90;;
44272;SDS011;29964;17.182;-96.766;2023-03-17T05:19:18;2.30;;;1.10;;
44272;SDS011;29964;17.182;-96.766;2023-03-17T05:21:45;2.90;;;1.67;;
44272;SDS011;29964;17.182;-96.766;2023-03-17T05:24:11;2.73;;;1.90;;
44272;SDS011;29964;17.182;-96.766;2023-03-17T05:26:40;2.60;;;1.80;;
44272;SDS011;29964;17.182;-96.766;2023-03-17T05:29:07;1.77;;;1.20;;
44272;SDS011;29964;17.182;-96.766;2023-03-17T05:31:34;3.63;;;2.10;;
44272;SDS011;29964;17.182;-96.766;2023-03-17T05:34:00;2.27;;;1.63;;
44272;SDS011;29964;17.182;-96.766;2023-03-17T05:36:28;7.83;;;2.60;;
44272;SDS011;29964;17.182;-96.766;2023-03-17T05:38:55;3.97;;;1.83;;
44272;SDS011;29964;17.182;-96.766;2023-03-17T05:41:22;4.00;;;2.10;;
44272;SDS011;29964;17.182;-96.766;2023-03-17T05:43:48;2.67;;;1.67;;
44272;SDS011;29964;17.182;-96.766;2023-03-17T05:46:16;3.03;;;1.90;;
44272;SDS011;29964;17.182;-96.766;2023-03-17T05:48:42;4.13;;;2.47;;
44272;SDS011;29964;17.182;-96.766;2023-03-17T05:51:09;3.53;;;1.87;;
44272;SDS011;29964;17.182;-96.766;2023-03-17T05:53:36;2.07;;;1.30;;
44272;SDS011;29964;17.182;-96.766;2023-03-17T05:56:03;2.13;;;1.70;;
44272;SDS011;29964;17.182;-96.766;2023-03-17T05:58:29;2.10;;;1.60;;
44272;SDS011;29964;17.182;-96.766;2023-03-17T06:00:56;1.93;;;1.17;;
44272;SDS011;29964;17.182;-96.766;2023-03-17T06:03:23;2.10;;;1.40;;
44272;SDS011;29964;17.182;-96.766;2023-03-17T06:05:50;1.97;;;1.60;;
44272;SDS011;29964;17.182;-96.766;2023-03-17T06:08:17;1.80;;;1.40;;
44272;SDS011;29964;17.182;-96.766;2023-03-17T06:10:44;4.43;;;2.37;;
44272;SDS011;29964;17.182;-96.766;2023-03-17T06:13:10;3.40;;;2.10;;
44272;SDS011;29964;17.182;-96.766;2023-03-17T06:15:37;2.67;;;1.40;;
44272;SDS011;29964;17.182;-96.766;2023-03-17T06:18:06;3.07;;;1.83;;
44272;SDS011;29964;17.182;-96.766;2023-03-17T06:20:33;5.67;;;2.27;;
44272;SDS011;29964;17.182;-96.766;2023-03-17T06:23:00;3.33;;;1.97;;
44272;SDS011;29964;17.182;-96.766;2023-03-17T06:25:27;3.27;;;2.17;;
44272;SDS011;29964;17.182;-96.766;2023-03-17T06:27:54;6.53;;;1.97;;
44272;SDS011;29964;17.182;-96.766;2023-03-17T06:30:21;2.87;;;1.87;;
44272;SDS011;29964;17.182;-96.766;2023-03-17T06:32:48;1.33;;;1.10;;
44272;SDS011;29964;17.182;-96.766;2023-03-17T06:35:15;20.37;;;2.10;;
44272;SDS011;29964;17.182;-96.766;2023-03-17T06:37:42;2.30;;;1.67;;
44272;SDS011;29964;17.182;-96.766;2023-03-17T06:40:09;12.20;;;2.80;;
44272;SDS011;29964;17.182;-96.766;2023-03-17T06:42:36;1.67;;;1.23;;
44272;SDS011;29964;17.182;-96.766;2023-03-17T06:45:03;2.87;;;1.90;;
44272;SDS011;29964;17.182;-96.766;2023-03-17T06:47:30;2.27;;;1.63;;
44272;SDS011;29964;17.182;-96.766;2023-03-17T06:49:58;2.97;;;2.27;;
44272;SDS011;29964;17.182;-96.766;2023-03-17T06:52:25;3.47;;;2.13;;
44272;SDS011;29964;17.182;-96.766;2023-03-17T06:54:52;2.80;;;2.00;;
44272;SDS011;29964;17.182;-96.766;2023-03-17T06:57:18;2.03;;;1.77;;
44272;SDS011;29964;17.182;-96.766;2023-03-17T06:59:45;2.73;;;2.03;;
44272;SDS011;29964;17.182;-96.766;2023-03-17T07:02:12;9.23;;;1.80;;
44272;SDS011;29964;17.182;-96.766;2023-03-17T07:04:39;2.90;;;2.07;;
44272;SDS011;29964;17.182;-96.766;2023-03-17T07:07:06;3.97;;;1.80;;
44272;SDS011;29964;17.182;-96.766;2023-03-17T07:09:33;2.57;;;1.83;;
44272;SDS011;29964;17.182;-96.766;2023-03-17T07:12:00;2.20;;;1.80;;
44272;SDS011;29964;17.182;-96.766;2023-03-17T07:14:31;2.57;;;1.90;;
44272;SDS011;29964;17.182;-96.766;2023-03-17T07:16:58;2.53;;;2.00;;
44272;SDS011;29964;17.182;-96.766;2023-03-17T07:19:25;2.33;;;1.60;;
44272;SDS011;29964;17.182;-96.766;2023-03-17T07:21:53;2.63;;;1.77;;
44272;SDS011;29964;17.182;-96.766;2023-03-17T07:24:20;4.27;;;2.83;;
44272;SDS011;29964;17.182;-96.766;2023-03-17T07:26:47;3.13;;;2.30;;
44272;SDS011;29964;17.182;-96.766;2023-03-17T07:29:14;3.20;;;2.23;;
44272;SDS011;29964;17.182;-96.766;2023-03-17T07:31:42;1.07;;;0.97;;
44272;SDS011;29964;17.182;-96.766;2023-03-17T07:34:09;3.13;;;1.83;;
44272;SDS011;29964;17.182;-96.766;2023-03-17T07:36:37;1.70;;;1.53;;
44272;SDS011;29964;17.182;-96.766;2023-03-17T07:39:04;3.50;;;1.93;;
44272;SDS011;29964;17.182;-96.766;2023-03-17T07:41:30;1.57;;;1.40;;
44272;SDS011;29964;17.182;-96.766;2023-03-17T07:43:57;4.77;;;3.07;;
44272;SDS011;29964;17.182;-96.766;2023-03-17T07:46:24;3.87;;;2.53;;
44272;SDS011;29964;17.182;-96.766;2023-03-17T07:48:50;2.10;;;1.60;;
44272;SDS011;29964;17.182;-96.766;2023-03-17T07:51:18;5.93;;;2.37;;
44272;SDS011;29964;17.182;-96.766;2023-03-17T07:53:46;3.00;;;2.00;;
44272;SDS011;29964;17.182;-96.766;2023-03-17T07:56:14;3.83;;;1.70;;
44272;SDS011;29964;17.182;-96.766;2023-03-17T07:58:42;2.50;;;1.73;;
44272;SDS011;29964;17.182;-96.766;2023-03-17T08:01:09;3.67;;;1.73;;
44272;SDS011;29964;17.182;-96.766;2023-03-17T08:03:35;1.17;;;1.07;;
44272;SDS011;29964;17.182;-96.766;2023-03-17T08:06:03;3.43;;;2.50;;
44272;SDS011;29964;17.182;-96.766;2023-03-17T08:08:30;2.07;;;1.60;;
44272;SDS011;29964;17.182;-96.766;2023-03-17T08:10:59;1.97;;;1.60;;
44272;SDS011;29964;17.182;-96.766;2023-03-17T08:13:28;4.13;;;2.07;;
44272;SDS011;29964;17.182;-96.766;2023-03-17T08:15:55;2.00;;;1.63;;
44272;SDS011;29964;17.182;-96.766;2023-03-17T08:18:22;2.27;;;2.00;;
44272;SDS011;29964;17.182;-96.766;2023-03-17T08:20:48;2.40;;;1.60;;
44272;SDS011;29964;17.182;-96.766;2023-03-17T08:23:18;3.30;;;2.10;;
44272;SDS011;29964;17.182;-96.766;2023-03-17T08:25:46;3.87;;;2.10;;
44272;SDS011;29964;17.182;-96.766;2023-03-17T08:28:13;2.57;;;1.87;;
44272;SDS011;29964;17.182;-96.766;2023-03-17T08:30:41;3.50;;;1.90;;
44272;SDS011;29964;17.182;-96.766;2023-03-17T08:33:08;2.90;;;2.10;;
44272;SDS011;29964;17.182;-96.766;2023-03-17T08:35:35;4.33;;;2.33;;
44272;SDS011;29964;17.182;-96.766;2023-03-17T08:38:03;3.97;;;2.87;;
44272;SDS011;29964;17.182;-96.766;2023-03-17T08:40:29;4.80;;;2.10;;
44272;SDS011;29964;17.182;-96.766;2023-03-17T08:42:56;3.90;;;2.37;;
44272;SDS011;29964;17.182;-96.766;2023-03-17T08:45:23;3.37;;;2.43;;
44272;SDS011;29964;17.182;-96.766;2023-03-17T08:47:50;2.17;;;1.77;;
44272;SDS011;29964;17.182;-96.766;2023-03-17T08:50:18;2.13;;;1.80;;
44272;SDS011;29964;17.182;-96.766;2023-03-17T08:52:45;3.10;;;2.00;;
44272;SDS011;29964;17.182;-96.766;2023-03-17T08:55:13;2.47;;;2.00;;
44272;SDS011;29964;17.182;-96.766;2023-03-17T08:57:41;5.17;;;2.90;;
44272;SDS011;29964;17.182;-96.766;2023-03-17T09:00:12;3.17;;;2.60;;
44272;SDS011;29964;17.182;-96.766;2023-03-17T09:02:40;3.53;;;2.83;;
44272;SDS011;29964;17.182;-96.766;2023-03-17T09:05:11;2.50;;;1.90;;
44272;SDS011;29964;17.182;-96.766;2023-03-17T09:07:38;2.90;;;2.10;;
44272;SDS011;29964;17.182;-96.766;2023-03-17T09:10:05;2.53;;;2.07;;
44272;SDS011;29964;17.182;-96.766;2023-03-17T09:12:32;7.37;;;3.33;;
44272;SDS011;29964;17.182;-96.766;2023-03-17T09:14:59;5.53;;;2.73;;
44272;SDS011;29964;17.182;-96.766;2023-03-17T09:17:26;5.90;;;2.83;;
44272;SDS011;29964;17.182;-96.766;2023-03-17T09:19:52;5.13;;;2.67;;
44272;SDS011;29964;17.182;-96.766;2023-03-17T09:22:19;2.20;;;1.90;;
44272;SDS011;29964;17.182;-96.766;2023-03-17T09:24:46;6.77;;;2.47;;
44272;SDS011;29964;17.182;-96.766;2023-03-17T09:27:13;3.00;;;2.30;;
44272;SDS011;29964;17.182;-96.766;2023-03-17T09:29:40;2.57;;;1.90;;
44272;SDS011;29964;17.182;-96.766;2023-03-17T09:32:06;3.80;;;2.57;;
44272;SDS011;29964;17.182;-96.766;2023-03-17T09:34:33;3.03;;;2.43;;
44272;SDS011;29964;17.182;-96.766;2023-03-17T09:37:00;7.20;;;2.53;;
44272;SDS011;29964;17.182;-96.766;2023-03-17T09:39:27;4.07;;;2.43;;
44272;SDS011;29964;17.182;-96.766;2023-03-17T09:42:01;2.90;;;2.30;;
44272;SDS011;29964;17.182;-96.766;2023-03-17T09:44:45;2.83;;;2.00;;
44272;SDS011;29964;17.182;-96.766;2023-03-17T09:49:47;5.13;;;2.27;;
44272;SDS011;29964;17.182;-96.766;2023-03-17T09:52:15;2.65;;;1.83;;
44272;SDS011;29964;17.182;-96.766;2023-03-17T09:54:43;3.30;;;2.60;;
44272;SDS011;29964;17.182;-96.766;2023-03-17T09:57:15;2.47;;;1.80;;
44272;SDS011;29964;17.182;-96.766;2023-03-17T09:59:47;3.50;;;2.63;;
44272;SDS011;29964;17.182;-96.766;2023-03-17T10:02:17;7.80;;;2.20;;
44272;SDS011;29964;17.182;-96.766;2023-03-17T10:04:47;2.90;;;2.10;;
44272;SDS011;29964;17.182;-96.766;2023-03-17T10:07:15;6.63;;;2.37;;
44272;SDS011;29964;17.182;-96.766;2023-03-17T10:09:45;2.93;;;2.43;;
44272;SDS011;29964;17.182;-96.766;2023-03-17T10:18:10;3.60;;;2.33;;
44272;SDS011;29964;17.182;-96.766;2023-03-17T10:20:54;3.03;;;2.20;;
44272;SDS011;29964;17.182;-96.766;2023-03-17T10:23:26;2.77;;;2.10;;
44272;SDS011;29964;17.182;-96.766;2023-03-17T10:25:55;6.63;;;3.50;;
44272;SDS011;29964;17.182;-96.766;2023-03-17T10:30:50;1.87;;;1.50;;
44272;SDS011;29964;17.182;-96.766;2023-03-17T10:33:17;3.67;;;2.73;;
44272;SDS011;29964;17.182;-96.766;2023-03-17T10:35:44;3.17;;;2.27;;
44272;SDS011;29964;17.182;-96.766;2023-03-17T10:38:19;2.80;;;1.83;;
44272;SDS011;29964;17.182;-96.766;2023-03-17T10:40:47;1.52;;;1.25;;
44272;SDS011;29964;17.182;-96.766;2023-03-17T10:43:21;2.83;;;1.90;;
44272;SDS011;29964;17.182;-96.766;2023-03-17T10:45:58;2.73;;;2.00;;
44272;SDS011;29964;17.182;-96.766;2023-03-17T10:48:25;2.00;;;1.80;;
44272;SDS011;29964;17.182;-96.766;2023-03-17T10:50:53;4.07;;;2.37;;
44272;SDS011;29964;17.182;-96.766;2023-03-17T10:53:24;3.53;;;2.40;;
44272;SDS011;29964;17.182;-96.766;2023-03-17T10:55:57;6.60;;;3.07;;
44272;SDS011;29964;17.182;-96.766;2023-03-17T11:01:02;3.97;;;3.20;;
44272;SDS011;29964;17.182;-96.766;2023-03-17T11:03:31;5.87;;;2.87;;
44272;SDS011;29964;17.182;-96.766;2023-03-17T11:06:03;5.00;;;2.70;;
44272;SDS011;29964;17.182;-96.766;2023-03-17T11:08:33;1.00;;;0.87;;
44272;SDS011;29964;17.182;-96.766;2023-03-17T11:11:03;3.77;;;2.57;;
44272;SDS011;29964;17.182;-96.766;2023-03-17T11:13:30;12.90;;;2.43;;
44272;SDS011;29964;17.182;-96.766;2023-03-17T11:16:07;2.67;;;2.03;;
44272;SDS011;29964;17.182;-96.766;2023-03-17T11:18:35;2.13;;;1.60;;
44272;SDS011;29964;17.182;-96.766;2023-03-17T11:26:07;1.93;;;1.57;;
44272;SDS011;29964;17.182;-96.766;2023-03-17T11:28:43;2.40;;;2.10;;
44272;SDS011;29964;17.182;-96.766;2023-03-17T11:31:31;2.30;;;1.90;;
44272;SDS011;29964;17.182;-96.766;2023-03-17T11:34:07;2.80;;;2.03;;
44272;SDS011;29964;17.182;-96.766;2023-03-17T11:36:43;2.57;;;1.97;;
44272;SDS011;29964;17.182;-96.766;2023-03-17T11:39:13;11.23;;;3.30;;
44272;SDS011;29964;17.182;-96.766;2023-03-17T11:44:29;3.43;;;2.00;;
44272;SDS011;29964;17.182;-96.766;2023-03-17T11:47:07;4.67;;;2.87;;
44272;SDS011;29964;17.182;-96.766;2023-03-17T11:49:36;7.57;;;2.67;;
44272;SDS011;29964;17.182;-96.766;2023-03-17T11:55:14;4.10;;;2.67;;
44272;SDS011;29964;17.182;-96.766;2023-03-17T12:00:22;4.10;;;2.57;;
44272;SDS011;29964;17.182;-96.766;2023-03-17T12:02:54;4.23;;;2.43;;
44272;SDS011;29964;17.182;-96.766;2023-03-17T12:05:23;5.00;;;2.53;;
44272;SDS011;29964;17.182;-96.766;2023-03-17T12:10:52;2.70;;;2.10;;
44272;SDS011;29964;17.182;-96.766;2023-03-17T12:13:22;2.07;;;1.73;;
44272;SDS011;29964;17.182;-96.766;2023-03-17T12:16:04;8.33;;;2.43;;
44272;SDS011;29964;17.182;-96.766;2023-03-17T12:18:56;7.27;;;2.97;;
44272;SDS011;29964;17.182;-96.766;2023-03-17T12:21:26;7.23;;;2.40;;
44272;SDS011;29964;17.182;-96.766;2023-03-17T12:24:09;2.80;;;2.30;;
44272;SDS011;29964;17.182;-96.766;2023-03-17T12:31:54;3.40;;;2.53;;
44272;SDS011;29964;17.182;-96.766;2023-03-17T12:34:57;3.53;;;2.78;;
44272;SDS011;29964;17.182;-96.766;2023-03-17T12:37:16;2.80;;;2.37;;
44272;SDS011;29964;17.182;-96.766;2023-03-17T12:39:50;5.40;;;4.03;;
44272;SDS011;29964;17.182;-96.766;2023-03-17T12:55:22;7.22;;;3.83;;
44272;SDS011;29964;17.182;-96.766;2023-03-17T12:58:05;4.20;;;3.17;;
44272;SDS011;29964;17.182;-96.766;2023-03-17T13:00:49;4.97;;;3.37;;
44272;SDS011;29964;17.182;-96.766;2023-03-17T13:03:23;3.70;;;2.83;;
44272;SDS011;29964;17.182;-96.766;2023-03-17T13:05:52;3.23;;;2.63;;
44272;SDS011;29964;17.182;-96.766;2023-03-17T13:09:01;4.97;;;2.97;;
44272;SDS011;29964;17.182;-96.766;2023-03-17T13:11:13;5.07;;;2.90;;
44272;SDS011;29964;17.182;-96.766;2023-03-17T13:13:55;6.23;;;3.73;;
44272;SDS011;29964;17.182;-96.766;2023-03-17T13:16:31;6.03;;;3.50;;
44272;SDS011;29964;17.182;-96.766;2023-03-17T13:19:15;5.65;;;4.43;;
44272;SDS011;29964;17.182;-96.766;2023-03-17T13:26:50;5.27;;;4.43;;
44272;SDS011;29964;17.182;-96.766;2023-03-17T13:29:25;10.33;;;4.73;;
44272;SDS011;29964;17.182;-96.766;2023-03-17T13:31:52;5.45;;;4.53;;
44272;SDS011;29964;17.182;-96.766;2023-03-17T13:34:48;9.63;;;5.27;;
44272;SDS011;29964;17.182;-96.766;2023-03-17T13:50:43;9.80;;;5.32;;
44272;SDS011;29964;17.182;-96.766;2023-03-17T13:53:10;9.23;;;5.97;;
44272;SDS011;29964;17.182;-96.766;2023-03-17T13:55:40;8.40;;;5.57;;
44272;SDS011;29964;17.182;-96.766;2023-03-17T14:00:39;5.67;;;4.60;;
44272;SDS011;29964;17.182;-96.766;2023-03-17T14:03:12;6.03;;;4.53;;
44272;SDS011;29964;17.182;-96.766;2023-03-17T14:05:41;6.73;;;5.27;;
44272;SDS011;29964;17.182;-96.766;2023-03-17T14:08:14;7.77;;;4.57;;
44272;SDS011;29964;17.182;-96.766;2023-03-17T14:10:42;6.60;;;4.43;;
44272;SDS011;29964;17.182;-96.766;2023-03-17T14:16:28;10.60;;;6.33;;
44272;SDS011;29964;17.182;-96.766;2023-03-17T14:18:35;9.03;;;5.67;;
44272;SDS011;29964;17.182;-96.766;2023-03-17T14:21:04;9.13;;;5.67;;
44272;SDS011;29964;17.182;-96.766;2023-03-17T14:23:34;19.27;;;4.53;;
44272;SDS011;29964;17.182;-96.766;2023-03-17T14:26:01;6.30;;;5.27;;
44272;SDS011;29964;17.182;-96.766;2023-03-17T14:28:30;8.00;;;5.60;;
44272;SDS011;29964;17.182;-96.766;2023-03-17T14:33:37;8.73;;;5.37;;
44272;SDS011;29964;17.182;-96.766;2023-03-17T14:36:05;9.03;;;4.13;;
44272;SDS011;29964;17.182;-96.766;2023-03-17T14:38:33;7.20;;;5.60;;
44272;SDS011;29964;17.182;-96.766;2023-03-17T14:41:04;7.10;;;3.60;;
44272;SDS011;29964;17.182;-96.766;2023-03-17T14:43:32;7.50;;;5.07;;
44272;SDS011;29964;17.182;-96.766;2023-03-17T14:46:06;4.07;;;2.80;;
44272;SDS011;29964;17.182;-96.766;2023-03-17T14:48:34;8.40;;;3.83;;
44272;SDS011;29964;17.182;-96.766;2023-03-17T14:51:02;7.97;;;3.57;;
44272;SDS011;29964;17.182;-96.766;2023-03-17T14:53:47;7.90;;;4.10;;
44272;SDS011;29964;17.182;-96.766;2023-03-17T14:56:20;4.50;;;3.30;;
44272;SDS011;29964;17.182;-96.766;2023-03-17T14:58:47;6.40;;;4.03;;
44272;SDS011;29964;17.182;-96.766;2023-03-17T15:01:17;8.73;;;4.87;;
44272;SDS011;29964;17.182;-96.766;2023-03-17T15:03:55;8.57;;;5.70;;
44272;SDS011;29964;17.182;-96.766;2023-03-17T15:08:49;5.00;;;3.67;;
44272;SDS011;29964;17.182;-96.766;2023-03-17T15:11:27;4.67;;;2.33;;
44272;SDS011;29964;17.182;-96.766;2023-03-17T15:14:14;3.97;;;3.00;;
44272;SDS011;29964;17.182;-96.766;2023-03-17T15:16:44;12.40;;;3.83;;
44272;SDS011;29964;17.182;-96.766;2023-03-17T15:19:20;8.83;;;3.17;;
44272;SDS011;29964;17.182;-96.766;2023-03-17T15:21:48;8.75;;;4.18;;
44272;SDS011;29964;17.182;-96.766;2023-03-17T15:24:22;4.20;;;3.07;;
44272;SDS011;29964;17.182;-96.766;2023-03-17T15:26:49;3.10;;;2.05;;
44272;SDS011;29964;17.182;-96.766;2023-03-17T15:29:16;4.33;;;2.70;;
44272;SDS011;29964;17.182;-96.766;2023-03-17T15:31:42;33.97;;;3.20;;
44272;SDS011;29964;17.182;-96.766;2023-03-17T15:34:12;4.00;;;2.47;;
44272;SDS011;29964;17.182;-96.766;2023-03-17T15:36:39;3.60;;;2.43;;
44272;SDS011;29964;17.182;-96.766;2023-03-17T15:39:08;3.57;;;2.20;;
44272;SDS011;29964;17.182;-96.766;2023-03-17T15:41:35;3.87;;;2.30;;
44272;SDS011;29964;17.182;-96.766;2023-03-17T15:44:01;5.37;;;2.73;;
44272;SDS011;29964;17.182;-96.766;2023-03-17T15:46:28;3.63;;;2.50;;
44272;SDS011;29964;17.182;-96.766;2023-03-17T15:48:56;5.17;;;2.60;;
44272;SDS011;29964;17.182;-96.766;2023-03-17T15:51:22;4.53;;;2.60;;
44272;SDS011;29964;17.182;-96.766;2023-03-17T15:53:49;5.50;;;1.87;;
44272;SDS011;29964;17.182;-96.766;2023-03-17T15:56:18;2.83;;;1.40;;